createdAt,value
2023-01-09T00:01:28.771Z,4.46
2023-01-09T00:03:57.142Z,4.42
2023-01-09T00:06:25.081Z,4.42
2023-01-09T00:08:53.217Z,4.44
2023-01-09T00:11:21.201Z,4.45
2023-01-09T00:13:49.527Z,4.41
2023-01-09T00:16:17.764Z,4.45
2023-01-09T00:18:47.404Z,4.44
2023-01-09T00:21:15.485Z,4.43
2023-01-09T00:23:43.681Z,4.44
2023-01-09T00:26:13.048Z,4.44
2023-01-09T00:28:41.478Z,4.43
2023-01-09T00:31:09.908Z,4.42
2023-01-09T00:33:40.927Z,4.42
2023-01-09T00:36:10.951Z,4.44
2023-01-09T00:38:39.371Z,4.43
2023-01-09T00:41:08.658Z,4.44
2023-01-09T00:43:39.447Z,4.44
2023-01-09T00:46:08.379Z,4.38
2023-01-09T00:48:38.532Z,4.36
2023-01-09T00:51:08.226Z,4.37
2023-01-09T00:53:39.414Z,4.37
2023-01-09T00:56:08.919Z,4.37
2023-01-09T00:58:37.325Z,4.36
2023-01-09T01:01:06.153Z,4.37
2023-01-09T01:03:34.392Z,4.38
2023-01-09T01:06:19.914Z,4.37
2023-01-09T01:08:49.523Z,4.35
2023-01-09T01:11:17.458Z,4.38
2023-01-09T01:13:45.604Z,4.39
2023-01-09T01:16:16.604Z,4.38
2023-01-09T01:18:45.114Z,4.34
2023-01-09T01:21:14.197Z,4.37
2023-01-09T01:23:42.527Z,4.36
2023-01-09T01:26:13.050Z,4.36
2023-01-09T01:28:41.670Z,4.35
2023-01-09T01:31:09.689Z,4.34
2023-01-09T01:33:37.827Z,4.32
2023-01-09T01:36:06.822Z,4.33
2023-01-09T01:38:36.127Z,4.33
2023-01-09T01:41:04.826Z,4.29
2023-01-09T01:43:48.068Z,4.26
2023-01-09T01:46:18.359Z,4.30
2023-01-09T01:48:47.619Z,4.28
2023-01-09T01:51:17.153Z,4.30
2023-01-09T01:53:47.279Z,4.29
2023-01-09T01:56:17.174Z,4.32
2023-01-09T01:58:47.236Z,4.27
2023-01-09T02:01:15.767Z,4.26
2023-01-09T02:03:46.036Z,4.24
2023-01-09T02:06:14.921Z,4.22
2023-01-09T02:08:43.466Z,4.21
2023-01-09T02:11:13.221Z,4.24
2023-01-09T02:13:41.867Z,4.27
2023-01-09T02:16:19.506Z,4.26
2023-01-09T02:18:52.267Z,4.27
2023-01-09T02:21:25.057Z,4.26
2023-01-09T02:24:20.322Z,4.23
2023-01-09T02:27:03.027Z,4.21
2023-01-09T02:29:54.936Z,4.22
2023-01-09T02:32:33.831Z,4.19
2023-01-09T02:35:08.892Z,4.24
2023-01-09T02:37:40.728Z,4.17
2023-01-09T02:40:11.040Z,4.16
2023-01-09T02:42:39.775Z,4.17
2023-01-09T02:45:08.536Z,4.14
2023-01-09T02:47:38.891Z,4.13
2023-01-09T02:50:09.389Z,4.18
2023-01-09T02:52:42.671Z,4.16
2023-01-09T02:55:13.037Z,4.08
2023-01-09T02:57:49.543Z,4.06
2023-01-09T03:00:25.275Z,4.06
2023-01-09T03:02:57.767Z,4.05
2023-01-09T03:05:29.192Z,4.07
2023-01-09T03:07:59.931Z,4.08
2023-01-09T03:10:37.412Z,4.07
2023-01-09T03:13:06.717Z,4.08
2023-01-09T03:15:37.069Z,4.05
2023-01-09T03:18:08.432Z,4.04
2023-01-09T03:20:36.648Z,4.04
2023-01-09T03:23:05.677Z,4.04
2023-01-09T03:25:34.508Z,4.04
2023-01-09T03:28:05.873Z,4.04
2023-01-09T03:33:57.776Z,4.04
2023-01-09T03:36:26.354Z,4.06
2023-01-09T03:38:54.219Z,4.00
2023-01-09T03:41:22.674Z,3.99
2023-01-09T03:43:50.563Z,3.97
2023-01-09T03:46:18.854Z,3.91
2023-01-09T03:48:46.706Z,3.93
2023-01-09T03:51:16.230Z,3.95
2023-01-09T03:53:44.095Z,3.99
2023-01-09T03:56:12.597Z,4.03
2023-01-09T03:58:40.473Z,4.04
2023-01-09T04:01:09.637Z,4.04
2023-01-09T04:03:37.636Z,4.05
2023-01-09T04:06:06.161Z,4.03
2023-01-09T04:08:35.567Z,4.00
2023-01-09T04:11:03.781Z,4.00
2023-01-09T04:13:31.607Z,3.99
2023-01-09T04:15:59.876Z,4.04
2023-01-09T04:18:27.990Z,4.06
2023-01-09T04:20:56.131Z,4.05
2023-01-09T04:23:24.095Z,4.00
2023-01-09T04:25:53.628Z,4.01
2023-01-09T04:28:21.777Z,4.06
2023-01-09T04:30:49.875Z,4.06
2023-01-09T04:33:17.854Z,4.05
2023-01-09T04:35:46.676Z,4.01
2023-01-09T04:38:14.602Z,4.03
2023-01-09T04:40:42.718Z,4.01
2023-01-09T04:43:11.984Z,4.03
2023-01-09T04:45:40.237Z,4.03
2023-01-09T04:48:08.148Z,3.99
2023-01-09T04:50:36.413Z,4.04
2023-01-09T04:53:07.040Z,4.00
2023-01-09T04:55:35.242Z,4.05
2023-01-09T04:58:03.071Z,4.00
2023-01-09T05:00:32.674Z,4.00
2023-01-09T05:03:02.829Z,4.00
2023-01-09T05:05:31.160Z,4.03
2023-01-09T05:07:59.326Z,4.05
2023-01-09T05:10:27.475Z,4.06
2023-01-09T05:12:55.333Z,4.04
2023-01-09T05:15:23.786Z,4.03
2023-01-09T05:17:53.445Z,4.03
2023-01-09T05:20:21.600Z,4.06
2023-01-09T05:22:49.480Z,4.07
2023-01-09T05:25:17.789Z,4.06
2023-01-09T05:27:46.382Z,4.04
2023-01-09T05:30:17.921Z,4.05
2023-01-09T05:32:46.224Z,4.03
2023-01-09T05:35:15.780Z,4.00
2023-01-09T05:37:43.976Z,4.00
2023-01-09T05:40:12.672Z,3.99
2023-01-09T05:42:40.620Z,4.04
2023-01-09T05:45:09.668Z,3.99
2023-01-09T05:47:37.785Z,3.94
2023-01-09T05:50:06.186Z,3.98
2023-01-09T05:52:35.436Z,4.00
2023-01-09T05:55:03.842Z,3.98
2023-01-09T05:57:31.672Z,4.01
2023-01-09T05:59:59.794Z,3.97
2023-01-09T06:02:27.760Z,3.97
2023-01-09T06:04:56.093Z,3.97
2023-01-09T06:07:23.944Z,4.00
2023-01-09T06:09:53.452Z,4.02
2023-01-09T06:12:21.310Z,4.03
2023-01-09T06:14:49.751Z,4.01
2023-01-09T06:17:17.617Z,4.02
2023-01-09T06:19:45.858Z,4.00
2023-01-09T06:22:13.730Z,3.99
2023-01-09T06:24:41.916Z,3.95
2023-01-09T06:27:13.072Z,3.96
2023-01-09T06:29:41.325Z,3.97
2023-01-09T06:32:09.210Z,3.97
2023-01-09T06:34:37.543Z,3.95
2023-01-09T06:37:05.369Z,4.01
2023-01-09T06:39:33.515Z,3.97
2023-01-09T06:42:01.613Z,3.98
2023-01-09T06:44:33.085Z,3.97
2023-01-09T06:47:01.125Z,3.98
2023-01-09T06:49:29.231Z,3.97
2023-01-09T06:51:57.247Z,3.94
2023-01-09T06:54:27.985Z,3.97
2023-01-09T06:56:56.797Z,3.96
2023-01-09T06:59:24.977Z,3.94
2023-01-09T07:01:54.418Z,3.93
2023-01-09T07:04:23.597Z,3.96
2023-01-09T07:06:51.559Z,3.96
2023-01-09T07:09:19.745Z,3.92
2023-01-09T07:11:47.984Z,3.91
2023-01-09T07:14:16.213Z,3.90
2023-01-09T07:16:44.107Z,3.92
2023-01-09T07:19:18.214Z,3.91
2023-01-09T07:21:46.195Z,3.91
2023-01-09T07:24:14.740Z,3.94
2023-01-09T07:26:43.426Z,3.97
2023-01-09T07:29:13.086Z,3.96
2023-01-09T07:31:41.025Z,3.96
2023-01-09T07:34:09.475Z,3.93
2023-01-09T07:36:41.946Z,3.94
2023-01-09T07:39:10.183Z,3.95
2023-01-09T07:41:38.040Z,3.96
2023-01-09T07:44:08.448Z,3.93
2023-01-09T07:46:37.714Z,3.96
2023-01-09T07:49:06.209Z,4.01
2023-01-09T07:51:34.142Z,3.98
2023-01-09T07:54:03.823Z,4.04
2023-01-09T07:56:31.708Z,4.05
2023-01-09T07:59:00.027Z,4.04
2023-01-09T08:01:28.049Z,4.08
2023-01-09T08:03:56.236Z,4.06
2023-01-09T08:06:24.107Z,4.05
2023-01-09T08:08:52.254Z,4.07
2023-01-09T08:11:21.518Z,4.07
2023-01-09T08:13:49.681Z,4.09
2023-01-09T08:16:18.024Z,4.09
2023-01-09T08:18:46.195Z,4.04
2023-01-09T08:21:14.471Z,4.06
2023-01-09T08:23:42.740Z,4.07
2023-01-09T08:26:10.867Z,4.05
2023-01-09T08:28:40.445Z,4.06
2023-01-09T08:31:08.483Z,4.07
2023-01-09T08:33:36.920Z,4.07
2023-01-09T08:36:05.494Z,4.11
2023-01-09T08:38:33.654Z,4.03
2023-01-09T08:41:21.630Z,4.06
2023-01-09T08:44:08.767Z,3.99
2023-01-09T08:46:54.031Z,4.00
2023-01-09T08:49:22.782Z,4.03
2023-01-09T08:51:50.663Z,3.96
2023-01-09T08:54:20.790Z,3.98
2023-01-09T08:56:48.893Z,3.97
2023-01-09T08:59:18.602Z,3.98
2023-01-09T09:01:46.518Z,3.94
2023-01-09T09:04:14.690Z,3.95
2023-01-09T09:06:42.772Z,3.90
2023-01-09T09:09:12.352Z,3.93
2023-01-09T09:11:42.923Z,3.95
2023-01-09T09:14:28.780Z,3.90
2023-01-09T09:16:58.298Z,3.95
2023-01-09T09:19:26.665Z,3.97
2023-01-09T09:21:54.510Z,4.00
2023-01-09T09:24:22.686Z,3.95
2023-01-09T09:26:50.711Z,3.88
2023-01-09T09:29:19.327Z,3.93
2023-01-09T09:31:47.177Z,3.94
2023-01-09T09:34:16.716Z,3.90
2023-01-09T09:36:44.630Z,3.83
2023-01-09T09:39:12.973Z,3.83
2023-01-09T09:42:25.206Z,3.74
2023-01-09T09:45:01.030Z,3.42
2023-01-09T09:47:38.278Z,3.72
2023-01-09T09:50:17.732Z,3.72
2023-01-09T09:52:49.540Z,3.69
2023-01-09T09:55:19.644Z,3.68
2023-01-09T09:57:48.792Z,3.70
2023-01-09T10:00:21.506Z,3.76
2023-01-09T10:02:52.616Z,3.80
2023-01-09T10:05:27.083Z,3.79
2023-01-09T10:07:55.005Z,3.73
2023-01-09T10:10:27.573Z,3.72
2023-01-09T10:12:56.354Z,3.71
2023-01-09T10:15:31.168Z,3.73
2023-01-09T10:18:11.211Z,3.77
2023-01-09T10:20:50.225Z,3.76
2023-01-09T10:23:26.994Z,3.80
2023-01-09T10:25:58.136Z,3.82
2023-01-09T10:28:37.893Z,3.80
2023-01-09T10:31:09.216Z,3.85
2023-01-09T10:33:41.977Z,3.88
2023-01-09T10:36:31.456Z,3.89
2023-01-09T10:39:04.247Z,3.90
2023-01-09T10:41:35.831Z,3.91
2023-01-09T10:44:06.543Z,3.90
2023-01-09T10:46:37.594Z,3.89
2023-01-09T10:49:12.301Z,3.95
2023-01-09T10:51:45.554Z,3.99
2023-01-09T10:54:15.888Z,4.00
2023-01-09T10:56:47.195Z,4.00
2023-01-09T10:59:15.108Z,4.02
2023-01-09T11:01:43.569Z,4.00
2023-01-09T11:04:18.798Z,4.02
2023-01-09T11:06:48.950Z,4.09
2023-01-09T11:09:19.098Z,4.04
2023-01-09T11:11:47.332Z,3.96
2023-01-09T11:14:17.061Z,3.97
2023-01-09T11:16:52.172Z,3.75
2023-01-09T11:19:20.054Z,4.03
2023-01-09T11:21:48.509Z,4.08
2023-01-09T11:24:31.564Z,4.00
2023-01-09T11:27:31.393Z,3.99
2023-01-09T11:30:08.748Z,3.97
2023-01-09T11:32:37.169Z,3.54
2023-01-09T11:35:07.164Z,3.96
2023-01-09T11:37:35.724Z,3.99
2023-01-09T11:40:03.703Z,3.98
2023-01-09T11:42:50.801Z,3.97
2023-01-09T11:45:19.903Z,4.04
2023-01-09T11:47:48.077Z,3.99
2023-01-09T11:50:20.839Z,3.99
2023-01-09T11:53:08.683Z,3.95
2023-01-09T11:55:42.378Z,3.90
2023-01-09T11:58:16.441Z,3.83
2023-01-09T12:00:48.335Z,3.87
2023-01-09T12:03:21.686Z,3.87
2023-01-09T12:05:55.853Z,3.81
2023-01-09T12:08:29.312Z,3.84
2023-01-09T12:11:05.170Z,3.91
2023-01-09T12:13:42.927Z,3.90
2023-01-09T12:16:15.738Z,3.87
2023-01-09T12:18:50.455Z,3.86
2023-01-09T12:21:25.581Z,3.85
2023-01-09T12:24:05.327Z,3.89
2023-01-09T12:26:34.138Z,3.88
2023-01-09T12:29:26.370Z,3.93
2023-01-09T12:32:03.341Z,3.94
2023-01-09T12:34:39.031Z,3.94
2023-01-09T12:37:15.839Z,3.89
2023-01-09T12:39:52.446Z,3.93
2023-01-09T12:42:37.406Z,3.94
2023-01-09T12:45:14.359Z,3.91
2023-01-09T12:47:48.083Z,3.94
2023-01-09T12:50:25.246Z,3.89
2023-01-09T12:52:59.008Z,3.92
2023-01-09T12:55:28.958Z,3.87
2023-01-09T12:57:59.662Z,3.84
2023-01-09T13:00:30.461Z,3.86
2023-01-09T13:03:12.037Z,3.88
2023-01-09T13:05:43.848Z,3.90
2023-01-09T13:08:16.642Z,3.94
2023-01-09T13:10:47.183Z,3.89
2023-01-09T13:13:18.448Z,3.89
2023-01-09T13:15:48.667Z,3.95
2023-01-09T13:18:22.185Z,3.94
2023-01-09T13:20:51.113Z,3.96
2023-01-09T13:23:23.225Z,3.96
2023-01-09T13:25:55.296Z,3.96
2023-01-09T13:28:25.542Z,3.94
2023-01-09T13:31:10.287Z,3.92
2023-01-09T13:33:40.572Z,3.89
2023-01-09T13:36:08.993Z,3.87
2023-01-09T13:38:39.231Z,3.87
2023-01-09T13:41:29.016Z,3.91
2023-01-09T13:43:58.151Z,3.89
2023-01-09T13:46:34.102Z,3.87
2023-01-09T13:49:03.784Z,3.80
2023-01-09T13:51:53.462Z,3.89
2023-01-09T13:54:36.227Z,3.85
2023-01-09T13:57:22.444Z,3.84
2023-01-09T13:59:50.845Z,3.87
2023-01-09T14:02:34.386Z,3.84
2023-01-09T14:05:04.981Z,3.88
2023-01-09T14:07:33.630Z,3.87
2023-01-09T14:10:02.374Z,3.87
2023-01-09T14:12:32.176Z,3.81
2023-01-09T14:15:02.408Z,3.81
2023-01-09T14:17:33.332Z,3.80
2023-01-09T14:20:05.186Z,3.77
2023-01-09T14:22:45.565Z,3.77
2023-01-09T14:25:26.666Z,3.79
2023-01-09T14:28:15.619Z,3.84
2023-01-09T14:30:58.398Z,3.86
2023-01-09T14:33:27.753Z,3.79
2023-01-09T14:36:02.732Z,3.79
2023-01-09T14:38:33.456Z,3.81
2023-01-09T14:41:05.275Z,3.81
2023-01-09T14:43:40.069Z,3.79
2023-01-09T14:46:13.693Z,3.80
2023-01-09T14:48:47.543Z,3.82
2023-01-09T14:51:17.456Z,3.81
2023-01-09T14:53:47.295Z,3.84
2023-01-09T14:56:26.003Z,3.82
2023-01-09T14:59:04.367Z,3.80
2023-01-09T15:01:34.350Z,3.77
2023-01-09T15:04:04.079Z,3.76
2023-01-09T15:06:34.554Z,3.76
2023-01-09T15:09:05.721Z,3.80
2023-01-09T15:11:34.227Z,3.79
2023-01-09T15:14:05.246Z,3.79
2023-01-09T15:16:33.907Z,3.82
2023-01-09T15:19:03.559Z,3.81
2023-01-09T15:21:32.170Z,3.76
2023-01-09T15:24:14.057Z,3.80
2023-01-09T15:26:41.916Z,3.84
2023-01-09T15:29:15.507Z,3.84
2023-01-09T15:31:44.492Z,3.86
2023-01-09T15:34:16.884Z,3.86
2023-01-09T15:36:44.843Z,3.87
2023-01-09T15:39:19.467Z,3.83
2023-01-09T15:42:05.059Z,3.84
2023-01-09T15:44:36.536Z,3.87
2023-01-09T15:47:07.497Z,3.90
2023-01-09T15:49:37.368Z,3.88
2023-01-09T15:52:07.127Z,3.88
2023-01-09T15:54:37.364Z,3.89
2023-01-09T15:57:27.835Z,3.88
2023-01-09T15:59:56.686Z,3.88
2023-01-09T16:02:42.526Z,3.90
2023-01-09T16:05:15.994Z,3.87
2023-01-09T16:07:45.733Z,3.88
2023-01-09T16:10:24.030Z,3.92
2023-01-09T16:12:52.903Z,3.94
2023-01-09T16:15:21.585Z,3.87
2023-01-09T16:18:08.516Z,3.89
2023-01-09T16:20:38.166Z,3.91
2023-01-09T16:23:20.483Z,3.85
2023-01-09T16:25:51.768Z,3.88
2023-01-09T16:28:21.261Z,3.92
2023-01-09T16:30:53.948Z,3.88
2023-01-09T16:33:23.464Z,3.90
2023-01-09T16:35:52.140Z,3.94
2023-01-09T16:38:20.366Z,3.94
2023-01-09T16:41:20.111Z,3.89
2023-01-09T16:43:48.156Z,3.90
2023-01-09T16:46:17.456Z,3.93
2023-01-09T16:48:45.577Z,3.92
2023-01-09T16:51:15.448Z,3.94
2023-01-09T16:53:43.674Z,3.92
2023-01-09T16:56:16.145Z,3.95
2023-01-09T16:58:44.396Z,3.96
2023-01-09T17:01:13.632Z,3.94
2023-01-09T17:03:43.684Z,3.93
2023-01-09T17:06:16.726Z,3.92
2023-01-09T17:08:45.218Z,3.92
2023-01-09T17:11:20.144Z,3.94
2023-01-09T17:13:48.312Z,3.93
2023-01-09T17:16:17.456Z,3.93
2023-01-09T17:18:46.072Z,3.93
2023-01-09T17:21:17.083Z,3.95
2023-01-09T17:23:45.459Z,3.96
2023-01-09T17:26:46.368Z,3.96
2023-01-09T17:29:15.733Z,3.95
2023-01-09T17:31:43.901Z,3.99
2023-01-09T17:34:11.968Z,3.99
2023-01-09T17:36:40.177Z,3.96
2023-01-09T17:39:08.105Z,3.95
2023-01-09T17:41:36.272Z,3.94
2023-01-09T17:44:04.507Z,3.93
2023-01-09T17:46:35.323Z,3.97
2023-01-09T17:49:03.729Z,3.96
2023-01-09T17:51:31.990Z,3.97
2023-01-09T17:53:59.911Z,3.98
2023-01-09T17:56:29.178Z,4.01
2023-01-09T17:58:57.078Z,4.04
2023-01-09T18:01:28.050Z,4.00
2023-01-09T18:03:57.441Z,4.01
2023-01-09T18:06:25.693Z,4.01
2023-01-09T18:08:53.649Z,4.04
2023-01-09T18:11:22.652Z,4.06
2023-01-09T18:13:51.640Z,4.06
2023-01-09T18:16:20.726Z,4.08
2023-01-09T18:18:49.057Z,4.08
2023-01-09T18:21:19.477Z,4.05
2023-01-09T18:23:48.290Z,4.07
2023-01-09T18:26:20.853Z,4.11
2023-01-09T18:28:49.463Z,4.14
2023-01-09T18:31:22.131Z,4.13
2023-01-09T18:33:52.180Z,4.09
2023-01-09T18:36:22.628Z,4.08
2023-01-09T18:38:51.250Z,4.10
2023-01-09T18:41:19.415Z,4.08
2023-01-09T18:43:49.757Z,4.11
2023-01-09T18:46:20.889Z,4.13
2023-01-09T18:48:51.578Z,4.13
2023-01-09T18:51:21.631Z,4.13
2023-01-09T18:53:49.514Z,4.12
2023-01-09T18:56:17.735Z,4.11
2023-01-09T18:58:45.604Z,4.08
2023-01-09T19:01:14.975Z,4.12
2023-01-09T19:03:43.318Z,4.09
2023-01-09T19:06:12.949Z,4.10
2023-01-09T19:08:42.556Z,4.08
2023-01-09T19:11:10.954Z,4.05
2023-01-09T19:13:39.207Z,4.04
2023-01-09T19:16:09.173Z,4.05
2023-01-09T19:18:37.748Z,4.04
2023-01-09T19:21:10.737Z,4.00
2023-01-09T19:23:38.613Z,4.00
2023-01-09T19:26:09.135Z,3.97
2023-01-09T19:28:38.266Z,3.95
2023-01-09T19:31:06.437Z,3.89
2023-01-09T19:33:34.268Z,3.85
2023-01-09T19:36:02.397Z,3.82
2023-01-09T19:38:30.303Z,3.80
2023-01-09T19:41:09.010Z,3.81
2023-01-09T19:43:40.433Z,3.83
2023-01-09T19:46:09.278Z,3.85
2023-01-09T19:48:37.591Z,3.84
2023-01-09T19:51:06.591Z,3.86
2023-01-09T19:53:35.213Z,3.89
2023-01-09T19:56:10.423Z,3.90
2023-01-09T19:58:40.007Z,3.91
2023-01-09T20:01:09.571Z,3.94
2023-01-09T20:03:38.096Z,3.96
2023-01-09T20:06:13.910Z,3.92
2023-01-09T20:08:41.994Z,3.94
2023-01-09T20:11:10.231Z,3.94
2023-01-09T20:13:39.491Z,3.95
2023-01-09T20:16:08.372Z,3.97
2023-01-09T20:18:36.455Z,3.98
2023-01-09T20:21:06.805Z,3.94
2023-01-09T20:23:34.769Z,3.86
2023-01-09T20:26:03.927Z,3.83
2023-01-09T20:28:31.863Z,3.88
2023-01-09T20:31:03.120Z,3.87
2023-01-09T20:33:31.026Z,3.86
2023-01-09T20:36:01.537Z,3.81
2023-01-09T20:38:30.948Z,3.83
2023-01-09T20:40:59.307Z,3.83
2023-01-09T20:43:28.146Z,3.90
2023-01-09T20:45:56.413Z,3.94
2023-01-09T20:48:25.793Z,3.94
2023-01-09T20:50:54.095Z,3.94
2023-01-09T20:53:22.357Z,3.96
2023-01-09T20:55:50.510Z,3.97
2023-01-09T20:58:18.445Z,4.00
2023-01-09T21:00:46.616Z,4.01
2023-01-09T21:03:16.730Z,4.03
2023-01-09T21:05:46.280Z,4.08
2023-01-09T21:08:14.458Z,4.07
2023-01-09T21:10:42.769Z,4.11
2023-01-09T21:13:10.694Z,4.11
2023-01-09T21:15:39.284Z,4.06
2023-01-09T21:18:07.241Z,4.06
2023-01-09T21:20:35.446Z,4.07
2023-01-09T21:23:04.725Z,4.06
2023-01-09T21:25:32.936Z,4.08
2023-01-09T21:28:01.031Z,4.10
2023-01-09T21:30:29.675Z,4.11
2023-01-09T21:32:57.949Z,4.12
2023-01-09T21:35:26.275Z,4.14
2023-01-09T21:37:54.186Z,4.15
2023-01-09T21:40:23.919Z,4.18
2023-01-09T21:43:09.348Z,4.21
2023-01-09T21:45:56.188Z,4.21
2023-01-09T21:48:24.268Z,4.22
2023-01-09T21:50:52.440Z,4.22
2023-01-09T21:53:20.647Z,4.24
2023-01-09T21:55:50.249Z,4.27
2023-01-09T21:58:18.137Z,4.25
2023-01-09T22:00:46.340Z,4.24
2023-01-09T22:03:19.292Z,4.22
2023-01-09T22:05:47.385Z,4.22
2023-01-09T22:08:15.274Z,4.22
2023-01-09T22:10:43.406Z,4.24
2023-01-09T22:13:17.898Z,4.23
2023-01-09T22:15:47.765Z,4.26
2023-01-09T22:18:15.780Z,4.25
2023-01-09T22:20:43.951Z,3.92
2023-01-09T22:23:11.984Z,4.17
2023-01-09T22:25:41.617Z,4.21
2023-01-09T22:28:10.502Z,4.23
2023-01-09T22:30:41.840Z,4.22
2023-01-09T22:33:11.314Z,4.24
2023-01-09T22:35:40.049Z,4.24
2023-01-09T22:38:08.198Z,4.25
2023-01-09T22:40:37.511Z,4.26
2023-01-09T22:43:05.380Z,4.26
2023-01-09T22:45:34.147Z,4.23
2023-01-09T22:48:03.402Z,4.25
2023-01-09T22:50:31.711Z,4.21
2023-01-09T22:52:59.562Z,4.16
2023-01-09T22:55:27.726Z,4.13
2023-01-09T22:57:55.691Z,4.15
2023-01-09T23:00:23.928Z,4.14
2023-01-09T23:02:52.069Z,4.20
2023-01-09T23:05:25.070Z,4.23
2023-01-09T23:07:53.283Z,4.23
2023-01-09T23:10:21.685Z,4.26
2023-01-09T23:12:50.361Z,4.28
2023-01-09T23:15:18.741Z,4.29
2023-01-09T23:17:46.638Z,4.28
2023-01-09T23:20:14.935Z,4.27
2023-01-09T23:22:44.333Z,4.29
2023-01-09T23:25:14.373Z,4.21
2023-01-09T23:27:42.588Z,4.15
2023-01-09T23:30:12.920Z,4.15
2023-01-09T23:32:40.826Z,4.12
2023-01-09T23:35:09.326Z,4.09
2023-01-09T23:37:37.395Z,4.05
2023-01-09T23:40:07.678Z,3.99
2023-01-09T23:42:53.286Z,3.88
2023-01-09T23:45:23.046Z,3.90
2023-01-09T23:47:51.045Z,3.91
2023-01-09T23:50:19.705Z,3.86
2023-01-09T23:52:47.608Z,3.84
2023-01-09T23:55:17.410Z,3.79
2023-01-09T23:57:45.561Z,3.79
